sensor_id;sensor_type;location;lat;lon;timestamp;temperature;humidity
71837;DHT22;59686;51.716;7.016;2024-01-07T00:00:09;7.60;96.60
71837;DHT22;59686;51.716;7.016;2024-01-07T00:02:34;7.60;96.50
71837;DHT22;59686;51.716;7.016;2024-01-07T00:05:02;7.60;96.50
71837;DHT22;59686;51.716;7.016;2024-01-07T00:07:27;7.60;96.50
71837;DHT22;59686;51.716;7.016;2024-01-07T00:09:53;7.60;96.50
71837;DHT22;59686;51.716;7.016;2024-01-07T00:12:19;7.60;96.50
71837;DHT22;59686;51.716;7.016;2024-01-07T00:14:45;7.60;96.50
71837;DHT22;59686;51.716;7.016;2024-01-07T00:17:10;7.70;96.60
71837;DHT22;59686;51.716;7.016;2024-01-07T00:19:36;7.70;96.50
71837;DHT22;59686;51.716;7.016;2024-01-07T00:22:03;7.60;96.60
71837;DHT22;59686;51.716;7.016;2024-01-07T00:24:29;7.60;96.60
71837;DHT22;59686;51.716;7.016;2024-01-07T00:26:55;7.60;96.60
71837;DHT22;59686;51.716;7.016;2024-01-07T00:29:21;7.60;96.50
71837;DHT22;59686;51.716;7.016;2024-01-07T00:31:47;7.60;96.60
71837;DHT22;59686;51.716;7.016;2024-01-07T00:34:14;7.50;96.50
71837;DHT22;59686;51.716;7.016;2024-01-07T00:36:40;7.60;96.50
71837;DHT22;59686;51.716;7.016;2024-01-07T00:39:06;7.60;96.50
71837;DHT22;59686;51.716;7.016;2024-01-07T00:41:32;7.60;96.80
71837;DHT22;59686;51.716;7.016;2024-01-07T00:43:57;7.50;96.50
71837;DHT22;59686;51.716;7.016;2024-01-07T00:46:23;7.60;96.50
71837;DHT22;59686;51.716;7.016;2024-01-07T00:48:49;7.60;96.50
71837;DHT22;59686;51.716;7.016;2024-01-07T00:51:15;7.60;96.40
71837;DHT22;59686;51.716;7.016;2024-01-07T00:53:41;7.60;96.50
71837;DHT22;59686;51.716;7.016;2024-01-07T00:56:07;7.60;96.40
71837;DHT22;59686;51.716;7.016;2024-01-07T00:58:33;7.60;96.50
71837;DHT22;59686;51.716;7.016;2024-01-07T01:00:58;7.60;96.50
71837;DHT22;59686;51.716;7.016;2024-01-07T01:03:29;7.50;96.40
71837;DHT22;59686;51.716;7.016;2024-01-07T01:05:55;7.50;96.40
71837;DHT22;59686;51.716;7.016;2024-01-07T01:08:20;7.50;96.40
71837;DHT22;59686;51.716;7.016;2024-01-07T01:10:46;7.50;96.40
71837;DHT22;59686;51.716;7.016;2024-01-07T01:13:12;7.50;96.30
71837;DHT22;59686;51.716;7.016;2024-01-07T01:15:37;7.50;96.30
71837;DHT22;59686;51.716;7.016;2024-01-07T01:18:03;7.50;96.30
71837;DHT22;59686;51.716;7.016;2024-01-07T01:20:29;7.50;96.30
71837;DHT22;59686;51.716;7.016;2024-01-07T01:22:55;7.50;96.30
71837;DHT22;59686;51.716;7.016;2024-01-07T01:25:20;7.50;96.30
71837;DHT22;59686;51.716;7.016;2024-01-07T01:27:46;7.50;96.40
71837;DHT22;59686;51.716;7.016;2024-01-07T01:30:12;7.50;96.40
71837;DHT22;59686;51.716;7.016;2024-01-07T01:32:39;7.50;96.40
71837;DHT22;59686;51.716;7.016;2024-01-07T01:35:05;7.50;96.30
71837;DHT22;59686;51.716;7.016;2024-01-07T01:37:31;7.50;96.20
71837;DHT22;59686;51.716;7.016;2024-01-07T01:39:59;7.50;96.30
71837;DHT22;59686;51.716;7.016;2024-01-07T01:42:25;7.60;96.30
71837;DHT22;59686;51.716;7.016;2024-01-07T01:44:51;7.50;96.30
71837;DHT22;59686;51.716;7.016;2024-01-07T01:47:17;7.50;96.30
71837;DHT22;59686;51.716;7.016;2024-01-07T01:49:45;7.50;96.30
71837;DHT22;59686;51.716;7.016;2024-01-07T01:52:12;7.50;96.30
71837;DHT22;59686;51.716;7.016;2024-01-07T01:54:39;7.50;96.30
71837;DHT22;59686;51.716;7.016;2024-01-07T01:57:08;7.50;96.40
71837;DHT22;59686;51.716;7.016;2024-01-07T01:59:36;7.50;96.30
71837;DHT22;59686;51.716;7.016;2024-01-07T02:02:02;7.50;96.30
71837;DHT22;59686;51.716;7.016;2024-01-07T02:04:28;7.50;96.20
71837;DHT22;59686;51.716;7.016;2024-01-07T02:06:54;7.50;96.20
71837;DHT22;59686;51.716;7.016;2024-01-07T02:09:20;7.40;96.00
71837;DHT22;59686;51.716;7.016;2024-01-07T02:12:00;7.50;96.20
71837;DHT22;59686;51.716;7.016;2024-01-07T02:14:26;7.40;96.10
71837;DHT22;59686;51.716;7.016;2024-01-07T02:16:52;7.50;96.10
71837;DHT22;59686;51.716;7.016;2024-01-07T02:19:18;7.50;96.20
71837;DHT22;59686;51.716;7.016;2024-01-07T02:21:45;7.50;96.20
71837;DHT22;59686;51.716;7.016;2024-01-07T02:24:17;7.50;96.20
71837;DHT22;59686;51.716;7.016;2024-01-07T02:26:43;7.50;96.20
71837;DHT22;59686;51.716;7.016;2024-01-07T02:29:09;7.50;96.20
71837;DHT22;59686;51.716;7.016;2024-01-07T02:31:34;7.50;96.30
71837;DHT22;59686;51.716;7.016;2024-01-07T02:34:00;7.40;96.20
71837;DHT22;59686;51.716;7.016;2024-01-07T02:36:26;7.50;96.20
71837;DHT22;59686;51.716;7.016;2024-01-07T02:38:52;7.50;96.20
71837;DHT22;59686;51.716;7.016;2024-01-07T02:41:17;7.40;96.20
71837;DHT22;59686;51.716;7.016;2024-01-07T02:43:43;7.40;96.20
71837;DHT22;59686;51.716;7.016;2024-01-07T02:46:09;7.50;96.20
71837;DHT22;59686;51.716;7.016;2024-01-07T02:48:35;7.50;96.20
71837;DHT22;59686;51.716;7.016;2024-01-07T02:51:00;7.40;96.20
71837;DHT22;59686;51.716;7.016;2024-01-07T02:53:28;7.40;96.10
71837;DHT22;59686;51.716;7.016;2024-01-07T02:55:54;7.40;96.40
71837;DHT22;59686;51.716;7.016;2024-01-07T02:58:20;7.40;96.10
71837;DHT22;59686;51.716;7.016;2024-01-07T03:00:45;7.50;96.20
71837;DHT22;59686;51.716;7.016;2024-01-07T03:03:11;7.40;96.20
71837;DHT22;59686;51.716;7.016;2024-01-07T03:05:37;7.40;96.20
71837;DHT22;59686;51.716;7.016;2024-01-07T03:08:03;7.40;96.10
71837;DHT22;59686;51.716;7.016;2024-01-07T03:10:28;7.40;96.10
71837;DHT22;59686;51.716;7.016;2024-01-07T03:12:54;7.40;96.10
71837;DHT22;59686;51.716;7.016;2024-01-07T03:15:20;7.40;96.20
71837;DHT22;59686;51.716;7.016;2024-01-07T03:17:46;7.40;96.10
71837;DHT22;59686;51.716;7.016;2024-01-07T03:20:11;7.40;96.10
71837;DHT22;59686;51.716;7.016;2024-01-07T03:22:37;7.40;96.10
71837;DHT22;59686;51.716;7.016;2024-01-07T03:25:03;7.40;96.10
71837;DHT22;59686;51.716;7.016;2024-01-07T03:27:29;7.40;96.10
71837;DHT22;59686;51.716;7.016;2024-01-07T03:29:55;7.40;96.10
71837;DHT22;59686;51.716;7.016;2024-01-07T03:32:20;7.40;96.00
71837;DHT22;59686;51.716;7.016;2024-01-07T03:34:46;7.40;96.00
71837;DHT22;59686;51.716;7.016;2024-01-07T03:37:11;7.40;96.00
71837;DHT22;59686;51.716;7.016;2024-01-07T03:39:37;7.40;96.00
71837;DHT22;59686;51.716;7.016;2024-01-07T03:42:03;7.30;95.90
71837;DHT22;59686;51.716;7.016;2024-01-07T03:44:31;7.40;95.90
71837;DHT22;59686;51.716;7.016;2024-01-07T03:46:56;7.30;95.80
71837;DHT22;59686;51.716;7.016;2024-01-07T03:49:22;7.40;95.80
71837;DHT22;59686;51.716;7.016;2024-01-07T03:51:48;7.40;95.80
71837;DHT22;59686;51.716;7.016;2024-01-07T03:54:14;7.40;95.80
71837;DHT22;59686;51.716;7.016;2024-01-07T03:56:39;7.40;95.80
71837;DHT22;59686;51.716;7.016;2024-01-07T03:59:05;7.30;95.60
71837;DHT22;59686;51.716;7.016;2024-01-07T04:01:32;7.30;95.70
71837;DHT22;59686;51.716;7.016;2024-01-07T04:03:57;7.30;95.70
71837;DHT22;59686;51.716;7.016;2024-01-07T04:06:23;7.30;95.80
71837;DHT22;59686;51.716;7.016;2024-01-07T04:08:48;7.30;95.80
71837;DHT22;59686;51.716;7.016;2024-01-07T04:11:14;7.30;95.70
71837;DHT22;59686;51.716;7.016;2024-01-07T04:13:40;7.30;95.80
71837;DHT22;59686;51.716;7.016;2024-01-07T04:16:05;7.30;95.70
71837;DHT22;59686;51.716;7.016;2024-01-07T04:18:31;7.30;95.60
71837;DHT22;59686;51.716;7.016;2024-01-07T04:20:57;7.30;95.70
71837;DHT22;59686;51.716;7.016;2024-01-07T04:23:22;7.30;95.70
71837;DHT22;59686;51.716;7.016;2024-01-07T04:25:48;7.30;95.60
71837;DHT22;59686;51.716;7.016;2024-01-07T04:28:13;7.30;95.70
71837;DHT22;59686;51.716;7.016;2024-01-07T04:30:39;7.30;95.70
71837;DHT22;59686;51.716;7.016;2024-01-07T04:33:05;7.30;95.70
71837;DHT22;59686;51.716;7.016;2024-01-07T04:35:31;7.30;95.60
71837;DHT22;59686;51.716;7.016;2024-01-07T04:37:56;7.30;95.70
71837;DHT22;59686;51.716;7.016;2024-01-07T04:40:22;7.30;95.70
71837;DHT22;59686;51.716;7.016;2024-01-07T04:42:48;7.30;95.60
71837;DHT22;59686;51.716;7.016;2024-01-07T04:45:14;7.30;95.70
71837;DHT22;59686;51.716;7.016;2024-01-07T04:47:39;7.30;95.70
71837;DHT22;59686;51.716;7.016;2024-01-07T04:50:05;7.30;95.70
71837;DHT22;59686;51.716;7.016;2024-01-07T04:52:31;7.30;95.80
71837;DHT22;59686;51.716;7.016;2024-01-07T04:54:57;7.30;95.70
71837;DHT22;59686;51.716;7.016;2024-01-07T04:57:22;7.30;95.80
71837;DHT22;59686;51.716;7.016;2024-01-07T04:59:49;7.30;95.70
71837;DHT22;59686;51.716;7.016;2024-01-07T05:02:15;7.30;95.70
71837;DHT22;59686;51.716;7.016;2024-01-07T05:04:41;7.20;95.60
71837;DHT22;59686;51.716;7.016;2024-01-07T05:07:07;7.20;95.70
71837;DHT22;59686;51.716;7.016;2024-01-07T05:09:33;7.20;95.60
71837;DHT22;59686;51.716;7.016;2024-01-07T05:11:59;7.20;95.70
71837;DHT22;59686;51.716;7.016;2024-01-07T05:14:26;7.20;95.70
71837;DHT22;59686;51.716;7.016;2024-01-07T05:16:53;7.20;95.60
71837;DHT22;59686;51.716;7.016;2024-01-07T05:19:20;7.20;95.70
71837;DHT22;59686;51.716;7.016;2024-01-07T05:21:45;7.20;95.60
71837;DHT22;59686;51.716;7.016;2024-01-07T05:24:11;7.20;95.70
71837;DHT22;59686;51.716;7.016;2024-01-07T05:26:42;7.20;95.70
71837;DHT22;59686;51.716;7.016;2024-01-07T05:29:15;7.20;95.60
71837;DHT22;59686;51.716;7.016;2024-01-07T05:31:41;7.20;95.60
71837;DHT22;59686;51.716;7.016;2024-01-07T05:34:07;7.20;95.60
71837;DHT22;59686;51.716;7.016;2024-01-07T05:36:32;7.20;95.50
71837;DHT22;59686;51.716;7.016;2024-01-07T05:38:58;7.30;95.50
71837;DHT22;59686;51.716;7.016;2024-01-07T05:41:24;7.20;95.50
71837;DHT22;59686;51.716;7.016;2024-01-07T05:43:57;7.20;95.50
71837;DHT22;59686;51.716;7.016;2024-01-07T05:46:23;7.20;95.40
71837;DHT22;59686;51.716;7.016;2024-01-07T05:48:49;7.20;95.60
71837;DHT22;59686;51.716;7.016;2024-01-07T05:51:15;7.20;95.50
71837;DHT22;59686;51.716;7.016;2024-01-07T05:53:42;7.20;95.50
71837;DHT22;59686;51.716;7.016;2024-01-07T05:56:07;7.20;95.30
71837;DHT22;59686;51.716;7.016;2024-01-07T05:58:33;7.10;95.40
71837;DHT22;59686;51.716;7.016;2024-01-07T06:01:01;7.20;95.40
71837;DHT22;59686;51.716;7.016;2024-01-07T06:03:27;7.10;95.40
71837;DHT22;59686;51.716;7.016;2024-01-07T06:05:52;7.10;95.40
71837;DHT22;59686;51.716;7.016;2024-01-07T06:08:18;7.20;95.40
71837;DHT22;59686;51.716;7.016;2024-01-07T06:10:50;7.20;95.40
71837;DHT22;59686;51.716;7.016;2024-01-07T06:13:15;7.10;95.30
71837;DHT22;59686;51.716;7.016;2024-01-07T06:15:41;7.20;95.40
71837;DHT22;59686;51.716;7.016;2024-01-07T06:18:07;7.10;95.40
71837;DHT22;59686;51.716;7.016;2024-01-07T06:20:32;7.10;95.40
71837;DHT22;59686;51.716;7.016;2024-01-07T06:22:58;7.10;95.40
71837;DHT22;59686;51.716;7.016;2024-01-07T06:25:24;7.10;95.50
71837;DHT22;59686;51.716;7.016;2024-01-07T06:27:51;7.10;95.30
71837;DHT22;59686;51.716;7.016;2024-01-07T06:30:17;7.10;95.30
71837;DHT22;59686;51.716;7.016;2024-01-07T06:32:44;7.10;95.30
71837;DHT22;59686;51.716;7.016;2024-01-07T06:35:11;7.10;95.30
71837;DHT22;59686;51.716;7.016;2024-01-07T06:37:37;7.10;95.40
71837;DHT22;59686;51.716;7.016;2024-01-07T06:40:03;7.20;95.40
71837;DHT22;59686;51.716;7.016;2024-01-07T06:42:29;7.10;95.40
71837;DHT22;59686;51.716;7.016;2024-01-07T06:44:54;7.10;95.40
71837;DHT22;59686;51.716;7.016;2024-01-07T06:47:20;7.10;95.30
71837;DHT22;59686;51.716;7.016;2024-01-07T06:49:46;7.10;95.30
71837;DHT22;59686;51.716;7.016;2024-01-07T06:52:11;7.10;95.20
71837;DHT22;59686;51.716;7.016;2024-01-07T06:54:37;7.10;95.20
71837;DHT22;59686;51.716;7.016;2024-01-07T06:57:06;7.10;95.20
71837;DHT22;59686;51.716;7.016;2024-01-07T06:59:32;7.10;95.30
71837;DHT22;59686;51.716;7.016;2024-01-07T07:01:58;7.10;95.30
71837;DHT22;59686;51.716;7.016;2024-01-07T07:04:23;7.10;95.30
71837;DHT22;59686;51.716;7.016;2024-01-07T07:06:49;7.00;95.20
71837;DHT22;59686;51.716;7.016;2024-01-07T07:09:15;7.10;95.20
71837;DHT22;59686;51.716;7.016;2024-01-07T07:11:41;7.00;95.20
71837;DHT22;59686;51.716;7.016;2024-01-07T07:14:08;7.00;95.10
71837;DHT22;59686;51.716;7.016;2024-01-07T07:16:34;7.20;95.20
71837;DHT22;59686;51.716;7.016;2024-01-07T07:19:00;7.00;95.00
71837;DHT22;59686;51.716;7.016;2024-01-07T07:21:25;7.10;95.20
71837;DHT22;59686;51.716;7.016;2024-01-07T07:23:52;7.00;94.90
71837;DHT22;59686;51.716;7.016;2024-01-07T07:26:18;7.00;95.10
71837;DHT22;59686;51.716;7.016;2024-01-07T07:28:44;7.00;94.90
71837;DHT22;59686;51.716;7.016;2024-01-07T07:31:15;7.00;95.10
71837;DHT22;59686;51.716;7.016;2024-01-07T07:33:40;7.00;94.90
71837;DHT22;59686;51.716;7.016;2024-01-07T07:36:07;7.00;95.00
71837;DHT22;59686;51.716;7.016;2024-01-07T07:38:33;7.00;94.90
71837;DHT22;59686;51.716;7.016;2024-01-07T07:40:59;7.00;95.00
71837;DHT22;59686;51.716;7.016;2024-01-07T07:43:26;7.00;94.90
71837;DHT22;59686;51.716;7.016;2024-01-07T07:45:55;7.00;94.80
71837;DHT22;59686;51.716;7.016;2024-01-07T07:48:20;7.00;95.00
71837;DHT22;59686;51.716;7.016;2024-01-07T07:50:46;7.00;94.90
71837;DHT22;59686;51.716;7.016;2024-01-07T07:53:12;7.00;95.00
71837;DHT22;59686;51.716;7.016;2024-01-07T07:55:37;7.00;95.00
71837;DHT22;59686;51.716;7.016;2024-01-07T07:58:04;6.90;94.90
71837;DHT22;59686;51.716;7.016;2024-01-07T08:00:30;7.00;94.80
71837;DHT22;59686;51.716;7.016;2024-01-07T08:02:55;6.90;94.90
71837;DHT22;59686;51.716;7.016;2024-01-07T08:05:24;6.90;94.80
71837;DHT22;59686;51.716;7.016;2024-01-07T08:07:50;6.90;94.80
71837;DHT22;59686;51.716;7.016;2024-01-07T08:10:16;6.90;94.70
71837;DHT22;59686;51.716;7.016;2024-01-07T08:12:41;6.90;94.70
71837;DHT22;59686;51.716;7.016;2024-01-07T08:15:08;6.90;94.70
71837;DHT22;59686;51.716;7.016;2024-01-07T08:17:33;6.90;94.70
71837;DHT22;59686;51.716;7.016;2024-01-07T08:19:59;6.90;94.80
71837;DHT22;59686;51.716;7.016;2024-01-07T08:22:26;6.90;94.80
71837;DHT22;59686;51.716;7.016;2024-01-07T08:24:52;6.90;94.80
71837;DHT22;59686;51.716;7.016;2024-01-07T08:27:19;6.90;94.60
71837;DHT22;59686;51.716;7.016;2024-01-07T08:29:45;6.90;94.70
71837;DHT22;59686;51.716;7.016;2024-01-07T08:32:10;6.90;94.60
71837;DHT22;59686;51.716;7.016;2024-01-07T08:34:49;6.90;94.60
71837;DHT22;59686;51.716;7.016;2024-01-07T08:37:15;7.00;94.60
71837;DHT22;59686;51.716;7.016;2024-01-07T08:39:40;6.90;94.60
71837;DHT22;59686;51.716;7.016;2024-01-07T08:42:06;6.90;94.50
71837;DHT22;59686;51.716;7.016;2024-01-07T08:44:32;6.90;94.50
71837;DHT22;59686;51.716;7.016;2024-01-07T08:46:57;6.90;94.50
71837;DHT22;59686;51.716;7.016;2024-01-07T08:49:25;6.90;94.50
71837;DHT22;59686;51.716;7.016;2024-01-07T08:51:51;6.90;94.50
71837;DHT22;59686;51.716;7.016;2024-01-07T08:54:17;6.90;94.50
71837;DHT22;59686;51.716;7.016;2024-01-07T08:57:07;6.90;94.60
71837;DHT22;59686;51.716;7.016;2024-01-07T08:59:33;6.90;94.70
71837;DHT22;59686;51.716;7.016;2024-01-07T09:01:59;6.90;94.50
71837;DHT22;59686;51.716;7.016;2024-01-07T09:04:25;6.90;94.50
71837;DHT22;59686;51.716;7.016;2024-01-07T09:06:55;6.90;94.30
71837;DHT22;59686;51.716;7.016;2024-01-07T09:09:21;6.90;94.20
71837;DHT22;59686;51.716;7.016;2024-01-07T09:11:47;6.90;94.20
71837;DHT22;59686;51.716;7.016;2024-01-07T09:14:13;6.80;94.20
71837;DHT22;59686;51.716;7.016;2024-01-07T09:16:40;6.80;94.10
71837;DHT22;59686;51.716;7.016;2024-01-07T09:19:16;6.80;94.00
71837;DHT22;59686;51.716;7.016;2024-01-07T09:21:43;6.80;94.20
71837;DHT22;59686;51.716;7.016;2024-01-07T09:24:09;6.80;94.10
71837;DHT22;59686;51.716;7.016;2024-01-07T09:26:35;6.80;94.10
71837;DHT22;59686;51.716;7.016;2024-01-07T09:29:00;6.80;94.10
71837;DHT22;59686;51.716;7.016;2024-01-07T09:31:27;6.80;94.20
71837;DHT22;59686;51.716;7.016;2024-01-07T09:33:52;6.90;94.60
71837;DHT22;59686;51.716;7.016;2024-01-07T09:36:18;6.80;94.20
71837;DHT22;59686;51.716;7.016;2024-01-07T09:38:44;6.80;94.60
71837;DHT22;59686;51.716;7.016;2024-01-07T09:41:14;6.70;91.60
71837;DHT22;59686;51.716;7.016;2024-01-07T09:43:40;6.30;89.70
71837;DHT22;59686;51.716;7.016;2024-01-07T09:46:06;5.40;90.40
71837;DHT22;59686;51.716;7.016;2024-01-07T09:48:31;5.20;90.60
71837;DHT22;59686;51.716;7.016;2024-01-07T09:50:59;4.70;91.00
71837;DHT22;59686;51.716;7.016;2024-01-07T09:53:30;4.50;91.90
71837;DHT22;59686;51.716;7.016;2024-01-07T09:58:35;5.10;91.70
71837;DHT22;59686;51.716;7.016;2024-01-07T10:01:02;5.40;91.90
71837;DHT22;59686;51.716;7.016;2024-01-07T10:03:32;5.70;91.90
71837;DHT22;59686;51.716;7.016;2024-01-07T10:05:58;5.80;92.00
71837;DHT22;59686;51.716;7.016;2024-01-07T10:08:23;6.00;92.20
71837;DHT22;59686;51.716;7.016;2024-01-07T10:10:49;6.10;92.40
71837;DHT22;59686;51.716;7.016;2024-01-07T10:13:34;6.10;92.40
71837;DHT22;59686;51.716;7.016;2024-01-07T10:15:59;6.20;92.60
71837;DHT22;59686;51.716;7.016;2024-01-07T10:18:25;6.20;92.70
71837;DHT22;59686;51.716;7.016;2024-01-07T10:20:51;6.30;92.80
71837;DHT22;59686;51.716;7.016;2024-01-07T10:23:20;6.30;92.80
71837;DHT22;59686;51.716;7.016;2024-01-07T10:25:46;6.30;92.90
71837;DHT22;59686;51.716;7.016;2024-01-07T10:28:13;6.40;92.90
71837;DHT22;59686;51.716;7.016;2024-01-07T10:30:39;6.40;92.90
71837;DHT22;59686;51.716;7.016;2024-01-07T10:33:07;6.40;92.90
71837;DHT22;59686;51.716;7.016;2024-01-07T10:35:34;6.40;92.90
71837;DHT22;59686;51.716;7.016;2024-01-07T10:38:00;6.40;92.90
71837;DHT22;59686;51.716;7.016;2024-01-07T10:40:38;6.40;92.90
71837;DHT22;59686;51.716;7.016;2024-01-07T10:43:05;6.40;92.80
71837;DHT22;59686;51.716;7.016;2024-01-07T10:45:37;6.40;92.90
71837;DHT22;59686;51.716;7.016;2024-01-07T10:48:04;6.50;92.80
71837;DHT22;59686;51.716;7.016;2024-01-07T10:50:33;6.50;92.90
71837;DHT22;59686;51.716;7.016;2024-01-07T10:53:03;6.50;92.90
71837;DHT22;59686;51.716;7.016;2024-01-07T10:55:34;6.50;92.70
71837;DHT22;59686;51.716;7.016;2024-01-07T10:58:03;6.50;92.60
71837;DHT22;59686;51.716;7.016;2024-01-07T11:00:31;6.50;92.80
71837;DHT22;59686;51.716;7.016;2024-01-07T11:05:58;6.50;92.80
71837;DHT22;59686;51.716;7.016;2024-01-07T11:08:36;6.50;92.60
71837;DHT22;59686;51.716;7.016;2024-01-07T11:11:38;6.50;92.70
71837;DHT22;59686;51.716;7.016;2024-01-07T11:14:40;6.50;92.50
71837;DHT22;59686;51.716;7.016;2024-01-07T11:17:09;6.50;92.60
71837;DHT22;59686;51.716;7.016;2024-01-07T11:19:39;6.50;92.40
71837;DHT22;59686;51.716;7.016;2024-01-07T11:22:31;6.50;92.70
71837;DHT22;59686;51.716;7.016;2024-01-07T11:24:59;6.50;92.50
71837;DHT22;59686;51.716;7.016;2024-01-07T11:27:30;6.50;92.60
71837;DHT22;59686;51.716;7.016;2024-01-07T11:32:30;6.50;92.50
71837;DHT22;59686;51.716;7.016;2024-01-07T11:34:58;6.50;92.60
71837;DHT22;59686;51.716;7.016;2024-01-07T11:37:40;6.50;92.30
71837;DHT22;59686;51.716;7.016;2024-01-07T11:40:06;6.50;92.30
71837;DHT22;59686;51.716;7.016;2024-01-07T11:42:35;6.50;92.30
71837;DHT22;59686;51.716;7.016;2024-01-07T11:45:04;6.50;92.20
71837;DHT22;59686;51.716;7.016;2024-01-07T11:47:30;6.50;92.00
71837;DHT22;59686;51.716;7.016;2024-01-07T11:49:55;6.40;92.00
71837;DHT22;59686;51.716;7.016;2024-01-07T11:52:21;6.50;91.90
71837;DHT22;59686;51.716;7.016;2024-01-07T11:54:47;6.50;92.10
71837;DHT22;59686;51.716;7.016;2024-01-07T11:57:14;6.50;92.00
71837;DHT22;59686;51.716;7.016;2024-01-07T11:59:39;6.50;92.00
71837;DHT22;59686;51.716;7.016;2024-01-07T12:02:05;6.40;91.70
71837;DHT22;59686;51.716;7.016;2024-01-07T12:04:31;6.40;91.70
71837;DHT22;59686;51.716;7.016;2024-01-07T12:06:57;6.40;91.60
71837;DHT22;59686;51.716;7.016;2024-01-07T12:09:31;6.40;91.60
71837;DHT22;59686;51.716;7.016;2024-01-07T12:11:57;6.40;91.60
71837;DHT22;59686;51.716;7.016;2024-01-07T12:14:22;6.40;91.60
71837;DHT22;59686;51.716;7.016;2024-01-07T12:16:48;6.40;91.70
71837;DHT22;59686;51.716;7.016;2024-01-07T12:19:14;6.40;91.50
71837;DHT22;59686;51.716;7.016;2024-01-07T12:21:40;6.40;91.60
71837;DHT22;59686;51.716;7.016;2024-01-07T12:24:06;6.40;91.60
71837;DHT22;59686;51.716;7.016;2024-01-07T12:26:37;6.40;91.60
71837;DHT22;59686;51.716;7.016;2024-01-07T12:29:03;6.40;91.80
71837;DHT22;59686;51.716;7.016;2024-01-07T12:31:31;6.40;91.70
71837;DHT22;59686;51.716;7.016;2024-01-07T12:33:57;6.40;91.80
71837;DHT22;59686;51.716;7.016;2024-01-07T12:36:23;6.40;91.70
71837;DHT22;59686;51.716;7.016;2024-01-07T12:38:50;6.40;91.50
71837;DHT22;59686;51.716;7.016;2024-01-07T12:41:23;6.50;91.50
71837;DHT22;59686;51.716;7.016;2024-01-07T12:43:49;6.40;91.50
71837;DHT22;59686;51.716;7.016;2024-01-07T12:46:16;6.40;91.60
71837;DHT22;59686;51.716;7.016;2024-01-07T12:48:42;6.50;91.50
71837;DHT22;59686;51.716;7.016;2024-01-07T12:51:08;6.50;91.60
71837;DHT22;59686;51.716;7.016;2024-01-07T12:53:33;6.40;91.40
71837;DHT22;59686;51.716;7.016;2024-01-07T12:56:06;6.50;91.50
71837;DHT22;59686;51.716;7.016;2024-01-07T12:58:31;6.40;91.60
71837;DHT22;59686;51.716;7.016;2024-01-07T13:00:57;6.50;91.50
71837;DHT22;59686;51.716;7.016;2024-01-07T13:03:23;6.50;91.60
71837;DHT22;59686;51.716;7.016;2024-01-07T13:05:50;6.50;91.70
71837;DHT22;59686;51.716;7.016;2024-01-07T13:08:16;6.40;91.50
71837;DHT22;59686;51.716;7.016;2024-01-07T13:10:45;6.40;91.40
71837;DHT22;59686;51.716;7.016;2024-01-07T13:13:11;6.40;91.40
71837;DHT22;59686;51.716;7.016;2024-01-07T13:15:38;6.40;91.20
71837;DHT22;59686;51.716;7.016;2024-01-07T13:18:04;6.40;91.20
71837;DHT22;59686;51.716;7.016;2024-01-07T13:20:30;6.30;91.30
71837;DHT22;59686;51.716;7.016;2024-01-07T13:22:55;6.40;91.40
71837;DHT22;59686;51.716;7.016;2024-01-07T13:25:21;6.40;91.50
71837;DHT22;59686;51.716;7.016;2024-01-07T13:27:52;6.40;91.50
71837;DHT22;59686;51.716;7.016;2024-01-07T13:30:18;6.40;91.40
71837;DHT22;59686;51.716;7.016;2024-01-07T13:32:44;6.50;91.60
71837;DHT22;59686;51.716;7.016;2024-01-07T13:35:09;6.40;91.50
71837;DHT22;59686;51.716;7.016;2024-01-07T13:37:36;6.40;91.50
71837;DHT22;59686;51.716;7.016;2024-01-07T13:40:03;6.40;91.60
71837;DHT22;59686;51.716;7.016;2024-01-07T13:42:29;6.40;91.70
71837;DHT22;59686;51.716;7.016;2024-01-07T13:44:55;6.40;91.70
71837;DHT22;59686;51.716;7.016;2024-01-07T13:47:21;6.40;91.80
71837;DHT22;59686;51.716;7.016;2024-01-07T13:49:47;6.40;91.60
71837;DHT22;59686;51.716;7.016;2024-01-07T13:52:12;6.40;91.50
71837;DHT22;59686;51.716;7.016;2024-01-07T13:54:41;6.40;91.30
71837;DHT22;59686;51.716;7.016;2024-01-07T13:57:07;6.40;91.20
71837;DHT22;59686;51.716;7.016;2024-01-07T13:59:33;6.40;91.20
71837;DHT22;59686;51.716;7.016;2024-01-07T14:01:58;6.40;91.30
71837;DHT22;59686;51.716;7.016;2024-01-07T14:04:24;6.40;91.30
71837;DHT22;59686;51.716;7.016;2024-01-07T14:06:54;6.30;91.30
71837;DHT22;59686;51.716;7.016;2024-01-07T14:09:21;6.40;91.10
71837;DHT22;59686;51.716;7.016;2024-01-07T14:11:54;6.40;90.80
71837;DHT22;59686;51.716;7.016;2024-01-07T14:14:20;6.40;91.00
71837;DHT22;59686;51.716;7.016;2024-01-07T14:16:45;6.40;91.10
71837;DHT22;59686;51.716;7.016;2024-01-07T14:19:19;6.40;91.10
71837;DHT22;59686;51.716;7.016;2024-01-07T14:21:45;6.40;91.00
71837;DHT22;59686;51.716;7.016;2024-01-07T14:24:11;6.30;90.80
71837;DHT22;59686;51.716;7.016;2024-01-07T14:26:37;6.30;90.90
71837;DHT22;59686;51.716;7.016;2024-01-07T14:29:14;6.30;90.90
71837;DHT22;59686;51.716;7.016;2024-01-07T14:31:39;6.40;90.90
71837;DHT22;59686;51.716;7.016;2024-01-07T14:34:05;6.40;90.90
71837;DHT22;59686;51.716;7.016;2024-01-07T14:36:31;6.40;91.10
71837;DHT22;59686;51.716;7.016;2024-01-07T14:38:57;6.40;91.00
71837;DHT22;59686;51.716;7.016;2024-01-07T14:41:22;6.40;91.10
71837;DHT22;59686;51.716;7.016;2024-01-07T14:43:48;6.40;90.90
71837;DHT22;59686;51.716;7.016;2024-01-07T14:46:14;6.30;90.90
71837;DHT22;59686;51.716;7.016;2024-01-07T14:48:39;6.30;90.90
71837;DHT22;59686;51.716;7.016;2024-01-07T14:51:05;6.30;90.80
71837;DHT22;59686;51.716;7.016;2024-01-07T14:53:31;6.30;90.80
71837;DHT22;59686;51.716;7.016;2024-01-07T14:55:58;6.30;90.90
71837;DHT22;59686;51.716;7.016;2024-01-07T14:58:24;6.30;91.00
71837;DHT22;59686;51.716;7.016;2024-01-07T15:00:50;6.30;90.80
71837;DHT22;59686;51.716;7.016;2024-01-07T15:03:27;6.30;90.90
71837;DHT22;59686;51.716;7.016;2024-01-07T15:05:55;6.30;91.10
71837;DHT22;59686;51.716;7.016;2024-01-07T15:08:20;6.30;91.00
71837;DHT22;59686;51.716;7.016;2024-01-07T15:10:46;6.30;91.10
71837;DHT22;59686;51.716;7.016;2024-01-07T15:13:12;6.30;91.10
71837;DHT22;59686;51.716;7.016;2024-01-07T15:15:38;6.30;91.00
71837;DHT22;59686;51.716;7.016;2024-01-07T15:18:04;6.20;89.10
71837;DHT22;59686;51.716;7.016;2024-01-07T15:20:29;6.20;90.20
71837;DHT22;59686;51.716;7.016;2024-01-07T15:22:55;6.20;90.30
71837;DHT22;59686;51.716;7.016;2024-01-07T15:25:21;6.30;90.30
71837;DHT22;59686;51.716;7.016;2024-01-07T15:27:51;6.30;90.30
71837;DHT22;59686;51.716;7.016;2024-01-07T15:30:17;6.30;90.50
71837;DHT22;59686;51.716;7.016;2024-01-07T15:32:42;6.30;90.60
71837;DHT22;59686;51.716;7.016;2024-01-07T15:35:08;6.30;90.80
71837;DHT22;59686;51.716;7.016;2024-01-07T15:37:34;6.30;90.90
71837;DHT22;59686;51.716;7.016;2024-01-07T15:40:00;6.20;90.80
71837;DHT22;59686;51.716;7.016;2024-01-07T15:42:26;6.30;90.80
71837;DHT22;59686;51.716;7.016;2024-01-07T15:44:52;6.20;90.80
71837;DHT22;59686;51.716;7.016;2024-01-07T15:47:21;6.20;90.90
71837;DHT22;59686;51.716;7.016;2024-01-07T15:49:49;6.20;90.70